sensor_id;sensor_type;location;lat;lon;timestamp;temperature;humidity
24772;DHT22;12870;52.274;9.754;2023-08-17T00:01:26;20.40;99.90
24772;DHT22;12870;52.274;9.754;2023-08-17T00:03:52;20.30;99.90
24772;DHT22;12870;52.274;9.754;2023-08-17T00:06:18;20.30;99.90
24772;DHT22;12870;52.274;9.754;2023-08-17T00:08:44;20.30;99.90
24772;DHT22;12870;52.274;9.754;2023-08-17T00:11:10;20.30;99.90
24772;DHT22;12870;52.274;9.754;2023-08-17T00:13:36;20.20;99.90
24772;DHT22;12870;52.274;9.754;2023-08-17T00:16:01;20.20;99.90
24772;DHT22;12870;52.274;9.754;2023-08-17T00:18:27;20.20;99.90
24772;DHT22;12870;52.274;9.754;2023-08-17T00:20:53;20.10;99.90
24772;DHT22;12870;52.274;9.754;2023-08-17T00:23:18;20.20;99.90
24772;DHT22;12870;52.274;9.754;2023-08-17T00:25:46;20.10;99.90
24772;DHT22;12870;52.274;9.754;2023-08-17T00:28:13;20.10;99.90
24772;DHT22;12870;52.274;9.754;2023-08-17T00:30:39;20.00;99.90
24772;DHT22;12870;52.274;9.754;2023-08-17T00:33:05;20.00;99.90
24772;DHT22;12870;52.274;9.754;2023-08-17T00:35:31;20.00;99.90
24772;DHT22;12870;52.274;9.754;2023-08-17T00:37:58;20.00;99.90
24772;DHT22;12870;52.274;9.754;2023-08-17T00:40:23;20.00;99.90
24772;DHT22;12870;52.274;9.754;2023-08-17T00:42:49;20.00;99.90
24772;DHT22;12870;52.274;9.754;2023-08-17T00:45:15;19.90;99.90
24772;DHT22;12870;52.274;9.754;2023-08-17T00:47:41;19.90;99.90
24772;DHT22;12870;52.274;9.754;2023-08-17T00:50:07;19.80;99.90
24772;DHT22;12870;52.274;9.754;2023-08-17T00:52:33;19.70;99.90
24772;DHT22;12870;52.274;9.754;2023-08-17T00:55:00;19.70;99.90
24772;DHT22;12870;52.274;9.754;2023-08-17T00:57:27;19.70;99.90
24772;DHT22;12870;52.274;9.754;2023-08-17T00:59:53;19.70;99.90
24772;DHT22;12870;52.274;9.754;2023-08-17T01:02:19;19.70;99.90
24772;DHT22;12870;52.274;9.754;2023-08-17T01:04:44;19.60;99.90
24772;DHT22;12870;52.274;9.754;2023-08-17T01:07:10;19.70;99.90
24772;DHT22;12870;52.274;9.754;2023-08-17T01:09:36;19.70;99.90
24772;DHT22;12870;52.274;9.754;2023-08-17T01:12:17;19.60;99.90
24772;DHT22;12870;52.274;9.754;2023-08-17T01:17:26;19.60;99.90
24772;DHT22;12870;52.274;9.754;2023-08-17T01:19:54;19.60;99.90
24772;DHT22;12870;52.274;9.754;2023-08-17T01:22:21;19.60;99.90
24772;DHT22;12870;52.274;9.754;2023-08-17T01:24:48;19.60;99.90
24772;DHT22;12870;52.274;9.754;2023-08-17T01:27:13;19.60;99.90
24772;DHT22;12870;52.274;9.754;2023-08-17T01:29:39;19.50;99.90
24772;DHT22;12870;52.274;9.754;2023-08-17T01:32:27;19.50;99.90
24772;DHT22;12870;52.274;9.754;2023-08-17T01:35:51;19.50;99.90
24772;DHT22;12870;52.274;9.754;2023-08-17T01:37:50;19.50;99.90
24772;DHT22;12870;52.274;9.754;2023-08-17T01:40:18;19.50;99.90
24772;DHT22;12870;52.274;9.754;2023-08-17T01:42:45;19.50;99.90
24772;DHT22;12870;52.274;9.754;2023-08-17T01:45:11;19.40;99.90
24772;DHT22;12870;52.274;9.754;2023-08-17T01:47:37;19.30;99.90
24772;DHT22;12870;52.274;9.754;2023-08-17T01:50:02;19.30;99.90
24772;DHT22;12870;52.274;9.754;2023-08-17T01:52:28;19.30;99.90
24772;DHT22;12870;52.274;9.754;2023-08-17T01:54:54;19.30;99.90
24772;DHT22;12870;52.274;9.754;2023-08-17T01:57:20;19.20;99.90
24772;DHT22;12870;52.274;9.754;2023-08-17T01:59:45;19.20;99.90
24772;DHT22;12870;52.274;9.754;2023-08-17T02:02:11;19.20;99.90
24772;DHT22;12870;52.274;9.754;2023-08-17T02:04:40;19.20;99.90
24772;DHT22;12870;52.274;9.754;2023-08-17T02:07:05;19.10;99.90
24772;DHT22;12870;52.274;9.754;2023-08-17T02:09:31;19.10;99.90
24772;DHT22;12870;52.274;9.754;2023-08-17T02:11:57;19.10;99.90
24772;DHT22;12870;52.274;9.754;2023-08-17T02:14:22;19.10;99.90
24772;DHT22;12870;52.274;9.754;2023-08-17T02:16:48;19.10;99.90
24772;DHT22;12870;52.274;9.754;2023-08-17T02:19:14;19.10;99.90
24772;DHT22;12870;52.274;9.754;2023-08-17T02:21:40;19.00;99.90
24772;DHT22;12870;52.274;9.754;2023-08-17T02:24:05;19.00;99.90
24772;DHT22;12870;52.274;9.754;2023-08-17T02:26:31;19.00;99.90
24772;DHT22;12870;52.274;9.754;2023-08-17T02:28:57;19.00;99.90
24772;DHT22;12870;52.274;9.754;2023-08-17T02:31:23;19.00;99.90
24772;DHT22;12870;52.274;9.754;2023-08-17T02:33:48;19.00;99.90
24772;DHT22;12870;52.274;9.754;2023-08-17T02:36:14;19.00;99.90
24772;DHT22;12870;52.274;9.754;2023-08-17T02:38:40;19.00;99.90
24772;DHT22;12870;52.274;9.754;2023-08-17T02:41:05;19.00;99.90
24772;DHT22;12870;52.274;9.754;2023-08-17T02:43:31;19.00;99.90
24772;DHT22;12870;52.274;9.754;2023-08-17T02:45:57;19.00;99.90
24772;DHT22;12870;52.274;9.754;2023-08-17T02:48:24;18.90;99.90
24772;DHT22;12870;52.274;9.754;2023-08-17T02:50:50;19.00;99.90
24772;DHT22;12870;52.274;9.754;2023-08-17T02:53:16;19.00;99.90
24772;DHT22;12870;52.274;9.754;2023-08-17T02:55:41;18.90;99.90
24772;DHT22;12870;52.274;9.754;2023-08-17T02:58:07;19.00;99.90
24772;DHT22;12870;52.274;9.754;2023-08-17T03:00:33;19.00;99.90
24772;DHT22;12870;52.274;9.754;2023-08-17T03:02:59;19.00;99.90
24772;DHT22;12870;52.274;9.754;2023-08-17T03:05:24;19.00;99.90
24772;DHT22;12870;52.274;9.754;2023-08-17T03:07:50;19.00;99.90
24772;DHT22;12870;52.274;9.754;2023-08-17T03:10:16;19.00;99.90
24772;DHT22;12870;52.274;9.754;2023-08-17T03:12:41;19.00;99.90
24772;DHT22;12870;52.274;9.754;2023-08-17T03:15:07;19.00;99.90
24772;DHT22;12870;52.274;9.754;2023-08-17T03:17:33;19.00;99.90
24772;DHT22;12870;52.274;9.754;2023-08-17T03:19:58;19.00;99.90
24772;DHT22;12870;52.274;9.754;2023-08-17T03:22:25;19.00;99.90
24772;DHT22;12870;52.274;9.754;2023-08-17T03:24:51;19.00;99.90
24772;DHT22;12870;52.274;9.754;2023-08-17T03:27:17;19.00;99.90
24772;DHT22;12870;52.274;9.754;2023-08-17T03:29:42;19.00;99.90
24772;DHT22;12870;52.274;9.754;2023-08-17T03:32:08;19.00;99.90
24772;DHT22;12870;52.274;9.754;2023-08-17T03:34:34;19.00;99.90
24772;DHT22;12870;52.274;9.754;2023-08-17T03:36:59;19.00;99.90
24772;DHT22;12870;52.274;9.754;2023-08-17T03:39:25;19.00;99.90
24772;DHT22;12870;52.274;9.754;2023-08-17T03:41:51;18.90;99.90
24772;DHT22;12870;52.274;9.754;2023-08-17T03:44:16;18.90;99.90
24772;DHT22;12870;52.274;9.754;2023-08-17T03:46:42;18.90;99.90
24772;DHT22;12870;52.274;9.754;2023-08-17T03:49:08;18.90;99.90
24772;DHT22;12870;52.274;9.754;2023-08-17T03:51:34;18.90;99.90
24772;DHT22;12870;52.274;9.754;2023-08-17T03:53:59;18.90;99.90
24772;DHT22;12870;52.274;9.754;2023-08-17T03:56:25;18.90;99.90
24772;DHT22;12870;52.274;9.754;2023-08-17T03:58:53;18.90;99.90
24772;DHT22;12870;52.274;9.754;2023-08-17T04:01:18;18.90;99.90
24772;DHT22;12870;52.274;9.754;2023-08-17T04:03:44;18.90;99.90
24772;DHT22;12870;52.274;9.754;2023-08-17T04:06:10;18.90;99.90
24772;DHT22;12870;52.274;9.754;2023-08-17T04:08:39;19.00;99.90
24772;DHT22;12870;52.274;9.754;2023-08-17T04:11:05;19.00;99.90
24772;DHT22;12870;52.274;9.754;2023-08-17T04:13:31;19.10;99.90
24772;DHT22;12870;52.274;9.754;2023-08-17T04:15:56;19.10;99.90
24772;DHT22;12870;52.274;9.754;2023-08-17T04:18:22;19.10;99.90
24772;DHT22;12870;52.274;9.754;2023-08-17T04:20:48;19.00;99.90
24772;DHT22;12870;52.274;9.754;2023-08-17T04:23:14;19.00;99.90
24772;DHT22;12870;52.274;9.754;2023-08-17T04:25:40;19.00;99.90
24772;DHT22;12870;52.274;9.754;2023-08-17T04:28:06;19.10;99.90
24772;DHT22;12870;52.274;9.754;2023-08-17T04:30:31;19.10;99.90
24772;DHT22;12870;52.274;9.754;2023-08-17T04:32:57;19.20;99.90
24772;DHT22;12870;52.274;9.754;2023-08-17T04:35:23;19.20;99.90
24772;DHT22;12870;52.274;9.754;2023-08-17T04:37:48;19.20;99.90
24772;DHT22;12870;52.274;9.754;2023-08-17T04:40:14;19.20;99.90
24772;DHT22;12870;52.274;9.754;2023-08-17T04:42:40;19.20;99.90
24772;DHT22;12870;52.274;9.754;2023-08-17T04:45:06;19.10;99.90
24772;DHT22;12870;52.274;9.754;2023-08-17T04:47:32;19.20;99.90
24772;DHT22;12870;52.274;9.754;2023-08-17T04:49:57;19.20;99.90
24772;DHT22;12870;52.274;9.754;2023-08-17T04:52:23;19.20;99.90
24772;DHT22;12870;52.274;9.754;2023-08-17T04:54:49;19.20;99.90
24772;DHT22;12870;52.274;9.754;2023-08-17T04:57:15;19.20;99.90
24772;DHT22;12870;52.274;9.754;2023-08-17T04:59:40;19.20;99.90
24772;DHT22;12870;52.274;9.754;2023-08-17T05:02:06;19.30;99.90
24772;DHT22;12870;52.274;9.754;2023-08-17T05:04:32;19.30;99.90
24772;DHT22;12870;52.274;9.754;2023-08-17T05:06:57;19.30;99.90
24772;DHT22;12870;52.274;9.754;2023-08-17T05:09:23;19.30;99.90
24772;DHT22;12870;52.274;9.754;2023-08-17T05:11:49;19.30;99.90
24772;DHT22;12870;52.274;9.754;2023-08-17T05:14:15;19.30;99.90
24772;DHT22;12870;52.274;9.754;2023-08-17T05:16:40;19.30;99.90
24772;DHT22;12870;52.274;9.754;2023-08-17T05:19:06;19.30;99.90
24772;DHT22;12870;52.274;9.754;2023-08-17T05:21:31;19.30;99.90
24772;DHT22;12870;52.274;9.754;2023-08-17T05:23:57;19.40;99.90
24772;DHT22;12870;52.274;9.754;2023-08-17T05:26:23;19.40;99.90
24772;DHT22;12870;52.274;9.754;2023-08-17T05:28:49;19.40;99.90
24772;DHT22;12870;52.274;9.754;2023-08-17T05:31:15;19.40;99.90
24772;DHT22;12870;52.274;9.754;2023-08-17T05:33:40;19.40;99.90
24772;DHT22;12870;52.274;9.754;2023-08-17T05:36:07;19.40;99.90
24772;DHT22;12870;52.274;9.754;2023-08-17T05:38:33;19.40;99.90
24772;DHT22;12870;52.274;9.754;2023-08-17T05:40:59;19.50;99.90
24772;DHT22;12870;52.274;9.754;2023-08-17T05:43:25;19.50;99.90
24772;DHT22;12870;52.274;9.754;2023-08-17T05:45:51;19.50;99.90
24772;DHT22;12870;52.274;9.754;2023-08-17T05:48:21;19.50;99.90
24772;DHT22;12870;52.274;9.754;2023-08-17T05:50:47;19.50;99.90
24772;DHT22;12870;52.274;9.754;2023-08-17T05:53:13;19.50;99.90
24772;DHT22;12870;52.274;9.754;2023-08-17T05:55:38;19.50;99.90
24772;DHT22;12870;52.274;9.754;2023-08-17T05:58:04;19.50;99.90
24772;DHT22;12870;52.274;9.754;2023-08-17T06:00:30;19.50;99.90
24772;DHT22;12870;52.274;9.754;2023-08-17T06:02:56;19.50;99.90
24772;DHT22;12870;52.274;9.754;2023-08-17T06:05:27;19.50;99.90
24772;DHT22;12870;52.274;9.754;2023-08-17T06:07:54;19.60;99.90
24772;DHT22;12870;52.274;9.754;2023-08-17T06:10:20;19.60;99.90
24772;DHT22;12870;52.274;9.754;2023-08-17T06:12:51;19.70;99.90
24772;DHT22;12870;52.274;9.754;2023-08-17T06:15:17;19.70;99.90
24772;DHT22;12870;52.274;9.754;2023-08-17T06:17:43;19.70;99.90
24772;DHT22;12870;52.274;9.754;2023-08-17T06:20:09;19.70;99.90
24772;DHT22;12870;52.274;9.754;2023-08-17T06:22:35;19.70;99.90
24772;DHT22;12870;52.274;9.754;2023-08-17T06:25:01;19.70;99.90
24772;DHT22;12870;52.274;9.754;2023-08-17T06:27:27;19.80;99.90
24772;DHT22;12870;52.274;9.754;2023-08-17T06:29:52;19.80;99.90
24772;DHT22;12870;52.274;9.754;2023-08-17T06:32:18;19.80;99.90
24772;DHT22;12870;52.274;9.754;2023-08-17T06:34:44;19.70;99.90
24772;DHT22;12870;52.274;9.754;2023-08-17T06:37:09;19.70;99.90
24772;DHT22;12870;52.274;9.754;2023-08-17T06:39:35;19.70;99.90
24772;DHT22;12870;52.274;9.754;2023-08-17T06:42:00;19.70;99.90
24772;DHT22;12870;52.274;9.754;2023-08-17T06:44:26;19.70;99.90
24772;DHT22;12870;52.274;9.754;2023-08-17T06:46:52;19.70;99.90
24772;DHT22;12870;52.274;9.754;2023-08-17T06:49:17;19.70;99.90
24772;DHT22;12870;52.274;9.754;2023-08-17T06:51:43;19.70;99.90
24772;DHT22;12870;52.274;9.754;2023-08-17T06:54:09;19.70;99.90
24772;DHT22;12870;52.274;9.754;2023-08-17T06:56:37;19.70;99.90
24772;DHT22;12870;52.274;9.754;2023-08-17T06:59:03;19.70;99.90
24772;DHT22;12870;52.274;9.754;2023-08-17T07:01:29;19.80;99.90
24772;DHT22;12870;52.274;9.754;2023-08-17T07:03:54;19.90;99.90
24772;DHT22;12870;52.274;9.754;2023-08-17T07:06:21;19.90;99.90
24772;DHT22;12870;52.274;9.754;2023-08-17T07:08:46;19.80;99.90
24772;DHT22;12870;52.274;9.754;2023-08-17T07:11:13;19.80;99.90
24772;DHT22;12870;52.274;9.754;2023-08-17T07:13:38;19.70;99.90
24772;DHT22;12870;52.274;9.754;2023-08-17T07:16:04;19.70;99.90
24772;DHT22;12870;52.274;9.754;2023-08-17T07:18:29;19.70;99.90
24772;DHT22;12870;52.274;9.754;2023-08-17T07:20:55;19.70;99.90
24772;DHT22;12870;52.274;9.754;2023-08-17T07:23:21;19.80;99.90
24772;DHT22;12870;52.274;9.754;2023-08-17T07:25:46;19.80;99.90
24772;DHT22;12870;52.274;9.754;2023-08-17T07:28:12;19.80;99.90
24772;DHT22;12870;52.274;9.754;2023-08-17T07:30:37;19.80;99.90
24772;DHT22;12870;52.274;9.754;2023-08-17T07:33:03;19.80;99.90
24772;DHT22;12870;52.274;9.754;2023-08-17T07:35:29;19.90;99.90
24772;DHT22;12870;52.274;9.754;2023-08-17T07:37:54;19.90;99.90
24772;DHT22;12870;52.274;9.754;2023-08-17T07:40:20;19.90;99.90
24772;DHT22;12870;52.274;9.754;2023-08-17T07:42:46;19.90;99.90
24772;DHT22;12870;52.274;9.754;2023-08-17T07:45:12;20.00;99.90
24772;DHT22;12870;52.274;9.754;2023-08-17T07:47:38;20.00;99.90
24772;DHT22;12870;52.274;9.754;2023-08-17T07:50:05;20.00;99.90
24772;DHT22;12870;52.274;9.754;2023-08-17T07:52:30;20.00;99.90
24772;DHT22;12870;52.274;9.754;2023-08-17T07:54:56;19.90;99.90
24772;DHT22;12870;52.274;9.754;2023-08-17T07:57:22;20.00;99.90
24772;DHT22;12870;52.274;9.754;2023-08-17T07:59:47;20.00;99.90
24772;DHT22;12870;52.274;9.754;2023-08-17T08:02:13;20.10;99.90
24772;DHT22;12870;52.274;9.754;2023-08-17T08:04:39;20.10;99.90
24772;DHT22;12870;52.274;9.754;2023-08-17T08:07:05;20.10;99.90
24772;DHT22;12870;52.274;9.754;2023-08-17T08:09:31;20.10;99.90
24772;DHT22;12870;52.274;9.754;2023-08-17T08:11:56;20.10;99.90
24772;DHT22;12870;52.274;9.754;2023-08-17T08:14:22;20.00;99.90
24772;DHT22;12870;52.274;9.754;2023-08-17T08:16:48;20.00;99.90
24772;DHT22;12870;52.274;9.754;2023-08-17T08:19:13;20.10;99.90
24772;DHT22;12870;52.274;9.754;2023-08-17T08:21:39;20.10;99.90
24772;DHT22;12870;52.274;9.754;2023-08-17T08:24:05;20.10;99.90
24772;DHT22;12870;52.274;9.754;2023-08-17T08:26:30;20.20;99.90
24772;DHT22;12870;52.274;9.754;2023-08-17T08:28:56;20.30;99.90
24772;DHT22;12870;52.274;9.754;2023-08-17T08:31:22;20.30;99.90
24772;DHT22;12870;52.274;9.754;2023-08-17T08:33:47;20.40;99.90
24772;DHT22;12870;52.274;9.754;2023-08-17T08:36:13;20.50;99.90
24772;DHT22;12870;52.274;9.754;2023-08-17T08:38:39;20.50;99.90
24772;DHT22;12870;52.274;9.754;2023-08-17T08:41:05;20.50;99.90
24772;DHT22;12870;52.274;9.754;2023-08-17T08:43:33;20.60;99.90
24772;DHT22;12870;52.274;9.754;2023-08-17T08:46:01;20.70;99.90
24772;DHT22;12870;52.274;9.754;2023-08-17T08:48:27;20.80;99.90
24772;DHT22;12870;52.274;9.754;2023-08-17T08:51:00;20.70;99.90
24772;DHT22;12870;52.274;9.754;2023-08-17T08:53:39;20.70;99.90
24772;DHT22;12870;52.274;9.754;2023-08-17T08:56:11;20.70;99.90
24772;DHT22;12870;52.274;9.754;2023-08-17T08:58:38;20.60;99.90
24772;DHT22;12870;52.274;9.754;2023-08-17T09:01:06;20.50;99.90
24772;DHT22;12870;52.274;9.754;2023-08-17T09:03:33;20.60;99.90
24772;DHT22;12870;52.274;9.754;2023-08-17T09:05:59;20.50;99.90
24772;DHT22;12870;52.274;9.754;2023-08-17T09:08:27;20.60;99.90
24772;DHT22;12870;52.274;9.754;2023-08-17T09:10:54;20.50;99.90
24772;DHT22;12870;52.274;9.754;2023-08-17T09:13:20;20.50;99.90
24772;DHT22;12870;52.274;9.754;2023-08-17T09:15:46;20.40;99.90
24772;DHT22;12870;52.274;9.754;2023-08-17T09:18:12;20.30;99.90
24772;DHT22;12870;52.274;9.754;2023-08-17T09:20:39;20.30;99.90
24772;DHT22;12870;52.274;9.754;2023-08-17T09:23:10;20.20;99.90
24772;DHT22;12870;52.274;9.754;2023-08-17T09:25:39;20.10;99.90
24772;DHT22;12870;52.274;9.754;2023-08-17T09:28:13;20.00;99.90
24772;DHT22;12870;52.274;9.754;2023-08-17T09:31:00;20.00;99.90
24772;DHT22;12870;52.274;9.754;2023-08-17T09:33:28;20.10;99.90
24772;DHT22;12870;52.274;9.754;2023-08-17T09:35:55;20.10;99.90
24772;DHT22;12870;52.274;9.754;2023-08-17T09:38:21;20.10;99.90
24772;DHT22;12870;52.274;9.754;2023-08-17T09:40:48;20.20;99.90
24772;DHT22;12870;52.274;9.754;2023-08-17T09:43:14;20.20;99.90
24772;DHT22;12870;52.274;9.754;2023-08-17T09:45:41;20.20;99.90
24772;DHT22;12870;52.274;9.754;2023-08-17T09:48:09;20.20;99.90
24772;DHT22;12870;52.274;9.754;2023-08-17T09:50:35;20.20;99.90
24772;DHT22;12870;52.274;9.754;2023-08-17T09:53:04;20.20;99.90
24772;DHT22;12870;52.274;9.754;2023-08-17T09:55:31;20.10;99.90
24772;DHT22;12870;52.274;9.754;2023-08-17T09:58:00;20.10;99.90
24772;DHT22;12870;52.274;9.754;2023-08-17T10:00:27;20.00;99.90
24772;DHT22;12870;52.274;9.754;2023-08-17T10:02:53;20.10;99.90
24772;DHT22;12870;52.274;9.754;2023-08-17T10:05:20;20.10;99.90
24772;DHT22;12870;52.274;9.754;2023-08-17T10:07:49;20.10;99.90
24772;DHT22;12870;52.274;9.754;2023-08-17T10:10:24;20.10;99.90
24772;DHT22;12870;52.274;9.754;2023-08-17T10:13:10;20.10;99.90
24772;DHT22;12870;52.274;9.754;2023-08-17T10:15:48;20.20;99.90
24772;DHT22;12870;52.274;9.754;2023-08-17T10:21:13;20.20;99.90
24772;DHT22;12870;52.274;9.754;2023-08-17T10:23:42;20.30;99.90
24772;DHT22;12870;52.274;9.754;2023-08-17T10:26:11;20.20;99.90
24772;DHT22;12870;52.274;9.754;2023-08-17T10:28:38;20.10;99.90
24772;DHT22;12870;52.274;9.754;2023-08-17T10:31:04;20.20;99.90
24772;DHT22;12870;52.274;9.754;2023-08-17T10:33:31;20.20;99.90
24772;DHT22;12870;52.274;9.754;2023-08-17T10:35:57;20.20;99.90
24772;DHT22;12870;52.274;9.754;2023-08-17T10:38:23;20.20;99.90
24772;DHT22;12870;52.274;9.754;2023-08-17T10:41:08;20.20;99.90
24772;DHT22;12870;52.274;9.754;2023-08-17T10:43:35;20.30;99.90
24772;DHT22;12870;52.274;9.754;2023-08-17T10:46:15;20.30;99.90
24772;DHT22;12870;52.274;9.754;2023-08-17T10:48:43;20.30;99.90
24772;DHT22;12870;52.274;9.754;2023-08-17T10:51:09;20.30;99.90
24772;DHT22;12870;52.274;9.754;2023-08-17T10:53:39;20.30;99.90
24772;DHT22;12870;52.274;9.754;2023-08-17T10:56:12;20.40;99.90
24772;DHT22;12870;52.274;9.754;2023-08-17T10:58:38;20.30;99.90
24772;DHT22;12870;52.274;9.754;2023-08-17T11:01:04;20.30;99.90
24772;DHT22;12870;52.274;9.754;2023-08-17T11:03:30;20.20;99.90
24772;DHT22;12870;52.274;9.754;2023-08-17T11:05:56;20.10;99.90
24772;DHT22;12870;52.274;9.754;2023-08-17T11:08:28;20.10;99.90
24772;DHT22;12870;52.274;9.754;2023-08-17T11:11:04;20.00;99.90
24772;DHT22;12870;52.274;9.754;2023-08-17T11:13:32;20.00;99.90
24772;DHT22;12870;52.274;9.754;2023-08-17T11:15:59;19.90;99.90
24772;DHT22;12870;52.274;9.754;2023-08-17T11:18:25;19.90;99.90
24772;DHT22;12870;52.274;9.754;2023-08-17T11:20:51;19.90;99.90
24772;DHT22;12870;52.274;9.754;2023-08-17T11:23:17;19.80;99.90
24772;DHT22;12870;52.274;9.754;2023-08-17T11:25:43;19.70;99.90
24772;DHT22;12870;52.274;9.754;2023-08-17T11:28:09;19.80;99.90
24772;DHT22;12870;52.274;9.754;2023-08-17T11:30:36;19.70;99.90
24772;DHT22;12870;52.274;9.754;2023-08-17T11:33:05;19.80;99.90
24772;DHT22;12870;52.274;9.754;2023-08-17T11:35:31;19.70;99.90
24772;DHT22;12870;52.274;9.754;2023-08-17T11:37:57;19.70;99.90
24772;DHT22;12870;52.274;9.754;2023-08-17T11:40:23;19.70;99.90
24772;DHT22;12870;52.274;9.754;2023-08-17T11:42:50;19.70;99.90
24772;DHT22;12870;52.274;9.754;2023-08-17T11:45:15;19.70;99.90
24772;DHT22;12870;52.274;9.754;2023-08-17T11:47:42;19.70;99.90
24772;DHT22;12870;52.274;9.754;2023-08-17T11:50:10;19.70;99.90
24772;DHT22;12870;52.274;9.754;2023-08-17T11:52:36;19.70;99.90
24772;DHT22;12870;52.274;9.754;2023-08-17T11:55:06;19.50;99.90
24772;DHT22;12870;52.274;9.754;2023-08-17T11:57:33;19.40;99.90
24772;DHT22;12870;52.274;9.754;2023-08-17T11:59:59;19.40;99.90
24772;DHT22;12870;52.274;9.754;2023-08-17T12:02:26;19.40;99.90
24772;DHT22;12870;52.274;9.754;2023-08-17T12:04:53;19.50;99.90
24772;DHT22;12870;52.274;9.754;2023-08-17T12:07:19;19.40;99.90
24772;DHT22;12870;52.274;9.754;2023-08-17T12:09:46;19.40;99.90
24772;DHT22;12870;52.274;9.754;2023-08-17T12:12:12;19.50;99.90
24772;DHT22;12870;52.274;9.754;2023-08-17T12:14:41;19.50;99.90
24772;DHT22;12870;52.274;9.754;2023-08-17T12:17:14;19.50;99.90
24772;DHT22;12870;52.274;9.754;2023-08-17T12:19:40;19.50;99.90
24772;DHT22;12870;52.274;9.754;2023-08-17T12:22:06;19.50;99.90
24772;DHT22;12870;52.274;9.754;2023-08-17T12:24:32;19.40;99.90
24772;DHT22;12870;52.274;9.754;2023-08-17T12:26:57;19.50;99.90
24772;DHT22;12870;52.274;9.754;2023-08-17T12:29:24;19.50;99.90
24772;DHT22;12870;52.274;9.754;2023-08-17T12:31:51;19.50;99.90
24772;DHT22;12870;52.274;9.754;2023-08-17T12:34:17;19.50;99.90
24772;DHT22;12870;52.274;9.754;2023-08-17T12:36:44;19.50;99.90
24772;DHT22;12870;52.274;9.754;2023-08-17T12:39:09;19.40;99.90
24772;DHT22;12870;52.274;9.754;2023-08-17T12:41:35;19.40;99.90
24772;DHT22;12870;52.274;9.754;2023-08-17T12:44:01;19.40;99.90
24772;DHT22;12870;52.274;9.754;2023-08-17T12:46:27;19.40;99.90
24772;DHT22;12870;52.274;9.754;2023-08-17T12:48:53;19.40;99.90
24772;DHT22;12870;52.274;9.754;2023-08-17T12:51:18;19.40;99.90
24772;DHT22;12870;52.274;9.754;2023-08-17T12:53:44;19.40;99.90
24772;DHT22;12870;52.274;9.754;2023-08-17T12:56:10;19.40;99.90
24772;DHT22;12870;52.274;9.754;2023-08-17T12:58:35;19.40;99.90
24772;DHT22;12870;52.274;9.754;2023-08-17T13:01:02;19.40;99.90
24772;DHT22;12870;52.274;9.754;2023-08-17T13:03:28;19.50;99.90
24772;DHT22;12870;52.274;9.754;2023-08-17T13:05:54;19.50;99.90
24772;DHT22;12870;52.274;9.754;2023-08-17T13:08:20;19.50;99.90
24772;DHT22;12870;52.274;9.754;2023-08-17T13:10:46;19.50;99.90
24772;DHT22;12870;52.274;9.754;2023-08-17T13:13:12;19.50;99.90
24772;DHT22;12870;52.274;9.754;2023-08-17T13:15:37;19.50;99.90
24772;DHT22;12870;52.274;9.754;2023-08-17T13:18:03;19.60;99.90
24772;DHT22;12870;52.274;9.754;2023-08-17T13:20:29;19.50;99.90
24772;DHT22;12870;52.274;9.754;2023-08-17T13:22:55;19.50;99.90
24772;DHT22;12870;52.274;9.754;2023-08-17T13:25:20;19.50;99.90
24772;DHT22;12870;52.274;9.754;2023-08-17T13:27:46;19.50;99.90
24772;DHT22;12870;52.274;9.754;2023-08-17T13:30:12;19.50;99.90
24772;DHT22;12870;52.274;9.754;2023-08-17T13:32:37;19.50;99.90
24772;DHT22;12870;52.274;9.754;2023-08-17T13:35:04;19.50;99.90
24772;DHT22;12870;52.274;9.754;2023-08-17T13:37:29;19.50;99.90
24772;DHT22;12870;52.274;9.754;2023-08-17T13:39:55;19.60;99.90
24772;DHT22;12870;52.274;9.754;2023-08-17T13:42:21;19.60;99.90
24772;DHT22;12870;52.274;9.754;2023-08-17T13:44:46;19.50;99.90
24772;DHT22;12870;52.274;9.754;2023-08-17T13:47:12;19.50;99.90
24772;DHT22;12870;52.274;9.754;2023-08-17T13:49:38;19.50;99.90
24772;DHT22;12870;52.274;9.754;2023-08-17T13:52:04;19.50;99.90
24772;DHT22;12870;52.274;9.754;2023-08-17T13:54:30;19.60;99.90
24772;DHT22;12870;52.274;9.754;2023-08-17T13:56:55;19.50;99.90
24772;DHT22;12870;52.274;9.754;2023-08-17T13:59:21;19.50;99.90
24772;DHT22;12870;52.274;9.754;2023-08-17T14:01:46;19.50;99.90
24772;DHT22;12870;52.274;9.754;2023-08-17T14:04:12;19.40;99.90
24772;DHT22;12870;52.274;9.754;2023-08-17T14:06:39;19.40;99.90
24772;DHT22;12870;52.274;9.754;2023-08-17T14:09:05;19.40;99.90
24772;DHT22;12870;52.274;9.754;2023-08-17T14:11:31;19.50;99.90
24772;DHT22;12870;52.274;9.754;2023-08-17T14:13:57;19.40;99.90
24772;DHT22;12870;52.274;9.754;2023-08-17T14:16:23;19.40;99.90
24772;DHT22;12870;52.274;9.754;2023-08-17T14:18:48;19.40;99.90
24772;DHT22;12870;52.274;9.754;2023-08-17T14:21:14;19.40;99.90
24772;DHT22;12870;52.274;9.754;2023-08-17T14:23:40;19.40;99.90
24772;DHT22;12870;52.274;9.754;2023-08-17T14:26:06;19.40;99.90
24772;DHT22;12870;52.274;9.754;2023-08-17T14:28:31;19.50;99.90
24772;DHT22;12870;52.274;9.754;2023-08-17T14:30:57;19.50;99.90
24772;DHT22;12870;52.274;9.754;2023-08-17T14:33:23;19.50;99.90
24772;DHT22;12870;52.274;9.754;2023-08-17T14:35:49;19.50;99.90
24772;DHT22;12870;52.274;9.754;2023-08-17T14:38:16;19.50;99.90
24772;DHT22;12870;52.274;9.754;2023-08-17T14:40:43;19.50;99.90
24772;DHT22;12870;52.274;9.754;2023-08-17T14:43:14;19.60;99.90
24772;DHT22;12870;52.274;9.754;2023-08-17T14:45:40;19.60;99.90
24772;DHT22;12870;52.274;9.754;2023-08-17T14:48:06;19.50;99.90
24772;DHT22;12870;52.274;9.754;2023-08-17T14:50:33;19.60;99.90
24772;DHT22;12870;52.274;9.754;2023-08-17T14:52:59;19.50;99.90
24772;DHT22;12870;52.274;9.754;2023-08-17T14:55:30;19.40;99.90
24772;DHT22;12870;52.274;9.754;2023-08-17T14:57:56;19.40;99.90
24772;DHT22;12870;52.274;9.754;2023-08-17T15:00:23;19.40;99.90
24772;DHT22;12870;52.274;9.754;2023-08-17T15:02:49;19.30;99.90
24772;DHT22;12870;52.274;9.754;2023-08-17T15:05:15;19.30;99.90
24772;DHT22;12870;52.274;9.754;2023-08-17T15:07:41;19.30;99.90
24772;DHT22;12870;52.274;9.754;2023-08-17T15:10:07;19.30;99.90
24772;DHT22;12870;52.274;9.754;2023-08-17T15:12:32;19.30;99.90
24772;DHT22;12870;52.274;9.754;2023-08-17T15:14:58;19.30;99.90
24772;DHT22;12870;52.274;9.754;2023-08-17T15:17:24;19.40;99.90
24772;DHT22;12870;52.274;9.754;2023-08-17T15:19:50;19.40;99.90
24772;DHT22;12870;52.274;9.754;2023-08-17T15:22:16;19.40;99.90
24772;DHT22;12870;52.274;9.754;2023-08-17T15:24:42;19.40;99.90
24772;DHT22;12870;52.274;9.754;2023-08-17T15:27:09;19.40;99.90
24772;DHT22;12870;52.274;9.754;2023-08-17T15:29:34;19.40;99.90
24772;DHT22;12870;52.274;9.754;2023-08-17T15:32:00;19.40;99.90